sensor_id;sensor_type;location;lat;lon;timestamp;temperature;humidity
53294;DHT22;39181;53.440;5.644;2024-02-14T00:00:00;6.80;99.90
53294;DHT22;39181;53.440;5.644;2024-02-14T00:02:26;6.40;99.90
53294;DHT22;39181;53.440;5.644;2024-02-14T00:04:52;6.60;99.90
53294;DHT22;39181;53.440;5.644;2024-02-14T00:07:19;6.00;99.90
53294;DHT22;39181;53.440;5.644;2024-02-14T00:09:44;6.90;99.90
53294;DHT22;39181;53.440;5.644;2024-02-14T00:12:10;6.10;99.90
53294;DHT22;39181;53.440;5.644;2024-02-14T00:14:37;6.00;99.90
53294;DHT22;39181;53.440;5.644;2024-02-14T00:17:03;6.00;99.90
53294;DHT22;39181;53.440;5.644;2024-02-14T00:19:31;7.10;99.90
53294;DHT22;39181;53.440;5.644;2024-02-14T00:21:57;6.20;99.90
53294;DHT22;39181;53.440;5.644;2024-02-14T00:24:22;6.00;99.90
53294;DHT22;39181;53.440;5.644;2024-02-14T00:26:50;6.40;99.90
53294;DHT22;39181;53.440;5.644;2024-02-14T00:29:16;7.10;99.90
53294;DHT22;39181;53.440;5.644;2024-02-14T00:31:41;6.00;99.90
53294;DHT22;39181;53.440;5.644;2024-02-14T00:34:09;7.00;99.90
53294;DHT22;39181;53.440;5.644;2024-02-14T00:36:35;6.90;99.90
53294;DHT22;39181;53.440;5.644;2024-02-14T00:39:00;7.00;99.90
53294;DHT22;39181;53.440;5.644;2024-02-14T00:41:26;7.10;99.90
53294;DHT22;39181;53.440;5.644;2024-02-14T00:43:55;6.90;99.90
53294;DHT22;39181;53.440;5.644;2024-02-14T00:46:21;6.20;99.90
53294;DHT22;39181;53.440;5.644;2024-02-14T00:48:46;6.50;99.90
53294;DHT22;39181;53.440;5.644;2024-02-14T00:51:12;7.10;99.90
53294;DHT22;39181;53.440;5.644;2024-02-14T00:53:37;7.10;99.90
53294;DHT22;39181;53.440;5.644;2024-02-14T00:56:03;6.10;99.90
53294;DHT22;39181;53.440;5.644;2024-02-14T00:58:29;7.10;99.90
53294;DHT22;39181;53.440;5.644;2024-02-14T01:00:54;7.20;99.90
53294;DHT22;39181;53.440;5.644;2024-02-14T01:03:20;6.50;99.90
53294;DHT22;39181;53.440;5.644;2024-02-14T01:05:46;7.50;99.90
53294;DHT22;39181;53.440;5.644;2024-02-14T01:08:12;7.20;99.90
53294;DHT22;39181;53.440;5.644;2024-02-14T01:10:38;6.40;99.90
53294;DHT22;39181;53.440;5.644;2024-02-14T01:13:04;6.20;99.90
53294;DHT22;39181;53.440;5.644;2024-02-14T01:15:30;6.20;99.90
53294;DHT22;39181;53.440;5.644;2024-02-14T01:17:56;6.20;99.90
53294;DHT22;39181;53.440;5.644;2024-02-14T01:20:21;7.30;99.90
53294;DHT22;39181;53.440;5.644;2024-02-14T01:22:47;7.30;99.90
53294;DHT22;39181;53.440;5.644;2024-02-14T01:25:13;6.90;99.90
53294;DHT22;39181;53.440;5.644;2024-02-14T01:27:38;6.70;99.90
53294;DHT22;39181;53.440;5.644;2024-02-14T01:30:05;7.30;99.90
53294;DHT22;39181;53.440;5.644;2024-02-14T01:32:30;6.40;99.90
53294;DHT22;39181;53.440;5.644;2024-02-14T01:34:57;6.40;99.90
53294;DHT22;39181;53.440;5.644;2024-02-14T01:37:22;7.40;99.90
53294;DHT22;39181;53.440;5.644;2024-02-14T01:39:48;6.40;99.90
53294;DHT22;39181;53.440;5.644;2024-02-14T01:42:13;7.50;99.90
53294;DHT22;39181;53.440;5.644;2024-02-14T01:44:40;6.40;99.90
53294;DHT22;39181;53.440;5.644;2024-02-14T01:47:05;7.10;99.90
53294;DHT22;39181;53.440;5.644;2024-02-14T01:49:33;7.70;99.90
53294;DHT22;39181;53.440;5.644;2024-02-14T01:52:02;6.70;99.90
53294;DHT22;39181;53.440;5.644;2024-02-14T01:54:29;6.50;99.90
53294;DHT22;39181;53.440;5.644;2024-02-14T01:56:56;7.70;99.90
53294;DHT22;39181;53.440;5.644;2024-02-14T01:59:23;6.90;99.90
53294;DHT22;39181;53.440;5.644;2024-02-14T02:01:50;6.60;99.90
53294;DHT22;39181;53.440;5.644;2024-02-14T02:04:17;7.80;99.90
53294;DHT22;39181;53.440;5.644;2024-02-14T02:06:43;6.80;99.90
53294;DHT22;39181;53.440;5.644;2024-02-14T02:09:09;7.10;99.90
53294;DHT22;39181;53.440;5.644;2024-02-14T02:11:51;7.30;99.90
53294;DHT22;39181;53.440;5.644;2024-02-14T02:14:19;6.70;99.90
53294;DHT22;39181;53.440;5.644;2024-02-14T02:16:45;7.90;99.90
53294;DHT22;39181;53.440;5.644;2024-02-14T02:19:11;7.50;99.90
53294;DHT22;39181;53.440;5.644;2024-02-14T02:21:37;7.60;99.90
53294;DHT22;39181;53.440;5.644;2024-02-14T02:24:03;7.60;99.90
53294;DHT22;39181;53.440;5.644;2024-02-14T02:26:29;7.20;99.90
53294;DHT22;39181;53.440;5.644;2024-02-14T02:28:55;6.90;99.90
53294;DHT22;39181;53.440;5.644;2024-02-14T02:31:20;6.80;99.90
53294;DHT22;39181;53.440;5.644;2024-02-14T02:33:46;7.00;99.90
53294;DHT22;39181;53.440;5.644;2024-02-14T02:36:12;6.90;99.90
53294;DHT22;39181;53.440;5.644;2024-02-14T02:38:38;7.00;99.90
53294;DHT22;39181;53.440;5.644;2024-02-14T02:41:04;7.90;99.90
53294;DHT22;39181;53.440;5.644;2024-02-14T02:43:32;7.30;99.90
53294;DHT22;39181;53.440;5.644;2024-02-14T02:45:58;8.00;99.90
53294;DHT22;39181;53.440;5.644;2024-02-14T02:48:24;7.00;99.90
53294;DHT22;39181;53.440;5.644;2024-02-14T02:50:50;7.00;99.90
53294;DHT22;39181;53.440;5.644;2024-02-14T02:53:16;7.60;99.90
53294;DHT22;39181;53.440;5.644;2024-02-14T02:55:42;7.20;99.90
53294;DHT22;39181;53.440;5.644;2024-02-14T02:58:09;7.30;99.90
53294;DHT22;39181;53.440;5.644;2024-02-14T03:00:35;7.80;99.90
53294;DHT22;39181;53.440;5.644;2024-02-14T03:03:01;7.90;99.90
53294;DHT22;39181;53.440;5.644;2024-02-14T03:05:29;7.90;99.90
53294;DHT22;39181;53.440;5.644;2024-02-14T03:07:57;7.40;99.90
53294;DHT22;39181;53.440;5.644;2024-02-14T03:10:24;7.40;99.90
53294;DHT22;39181;53.440;5.644;2024-02-14T03:12:50;8.00;99.90
53294;DHT22;39181;53.440;5.644;2024-02-14T03:15:17;7.30;99.90
53294;DHT22;39181;53.440;5.644;2024-02-14T03:17:44;7.40;99.90
53294;DHT22;39181;53.440;5.644;2024-02-14T03:20:10;8.10;99.90
53294;DHT22;39181;53.440;5.644;2024-02-14T03:22:38;7.80;99.90
53294;DHT22;39181;53.440;5.644;2024-02-14T03:25:08;7.30;99.90
53294;DHT22;39181;53.440;5.644;2024-02-14T03:27:33;8.20;99.90
53294;DHT22;39181;53.440;5.644;2024-02-14T03:30:00;7.50;99.90
53294;DHT22;39181;53.440;5.644;2024-02-14T03:32:28;7.90;99.90
53294;DHT22;39181;53.440;5.644;2024-02-14T03:34:54;7.90;99.90
53294;DHT22;39181;53.440;5.644;2024-02-14T03:37:19;7.40;99.90
53294;DHT22;39181;53.440;5.644;2024-02-14T03:39:45;7.90;99.90
53294;DHT22;39181;53.440;5.644;2024-02-14T03:42:11;7.30;99.90
53294;DHT22;39181;53.440;5.644;2024-02-14T03:44:36;7.60;99.90
53294;DHT22;39181;53.440;5.644;2024-02-14T03:47:03;7.40;99.90
53294;DHT22;39181;53.440;5.644;2024-02-14T03:49:29;7.50;99.90
53294;DHT22;39181;53.440;5.644;2024-02-14T03:51:56;8.10;99.90
53294;DHT22;39181;53.440;5.644;2024-02-14T03:54:22;7.80;99.90
53294;DHT22;39181;53.440;5.644;2024-02-14T03:56:48;8.30;99.90
53294;DHT22;39181;53.440;5.644;2024-02-14T03:59:14;7.50;99.90
53294;DHT22;39181;53.440;5.644;2024-02-14T04:01:46;7.80;99.90
53294;DHT22;39181;53.440;5.644;2024-02-14T04:04:11;7.90;99.90
53294;DHT22;39181;53.440;5.644;2024-02-14T04:06:37;8.30;99.90
53294;DHT22;39181;53.440;5.644;2024-02-14T04:09:02;8.40;99.90
53294;DHT22;39181;53.440;5.644;2024-02-14T04:11:28;8.40;99.90
53294;DHT22;39181;53.440;5.644;2024-02-14T04:13:53;8.20;99.90
53294;DHT22;39181;53.440;5.644;2024-02-14T04:16:20;7.60;99.90
53294;DHT22;39181;53.440;5.644;2024-02-14T04:18:46;7.50;99.90
53294;DHT22;39181;53.440;5.644;2024-02-14T04:21:12;7.50;99.90
53294;DHT22;39181;53.440;5.644;2024-02-14T04:23:38;8.40;99.90
53294;DHT22;39181;53.440;5.644;2024-02-14T04:26:04;7.50;99.90
53294;DHT22;39181;53.440;5.644;2024-02-14T04:28:30;7.80;99.90
53294;DHT22;39181;53.440;5.644;2024-02-14T04:30:55;7.60;99.90
53294;DHT22;39181;53.440;5.644;2024-02-14T04:33:22;8.40;99.90
53294;DHT22;39181;53.440;5.644;2024-02-14T04:35:47;7.60;99.90
53294;DHT22;39181;53.440;5.644;2024-02-14T04:38:13;8.40;99.90
53294;DHT22;39181;53.440;5.644;2024-02-14T04:40:38;7.50;99.90
53294;DHT22;39181;53.440;5.644;2024-02-14T04:43:05;7.50;99.90
53294;DHT22;39181;53.440;5.644;2024-02-14T04:45:30;7.60;99.90
53294;DHT22;39181;53.440;5.644;2024-02-14T04:47:56;7.50;99.90
53294;DHT22;39181;53.440;5.644;2024-02-14T04:50:22;8.40;99.90
53294;DHT22;39181;53.440;5.644;2024-02-14T04:52:47;7.60;99.90
53294;DHT22;39181;53.440;5.644;2024-02-14T04:55:13;7.70;99.90
53294;DHT22;39181;53.440;5.644;2024-02-14T04:57:38;7.50;99.90
53294;DHT22;39181;53.440;5.644;2024-02-14T05:00:05;8.50;99.90
53294;DHT22;39181;53.440;5.644;2024-02-14T05:02:30;8.00;99.90
53294;DHT22;39181;53.440;5.644;2024-02-14T05:04:56;7.90;99.90
53294;DHT22;39181;53.440;5.644;2024-02-14T05:07:22;8.40;99.90
53294;DHT22;39181;53.440;5.644;2024-02-14T05:09:47;7.90;99.90
53294;DHT22;39181;53.440;5.644;2024-02-14T05:12:16;7.70;99.90
53294;DHT22;39181;53.440;5.644;2024-02-14T05:14:42;8.10;99.90
53294;DHT22;39181;53.440;5.644;2024-02-14T05:17:08;8.30;99.90
53294;DHT22;39181;53.440;5.644;2024-02-14T05:19:33;7.60;99.90
53294;DHT22;39181;53.440;5.644;2024-02-14T05:21:59;7.70;99.90
53294;DHT22;39181;53.440;5.644;2024-02-14T05:24:25;7.60;99.90
53294;DHT22;39181;53.440;5.644;2024-02-14T05:26:54;7.70;99.90
53294;DHT22;39181;53.440;5.644;2024-02-14T05:29:20;8.50;99.90
53294;DHT22;39181;53.440;5.644;2024-02-14T05:31:46;8.10;99.90
53294;DHT22;39181;53.440;5.644;2024-02-14T05:34:14;8.00;99.90
53294;DHT22;39181;53.440;5.644;2024-02-14T05:36:39;7.70;99.90
53294;DHT22;39181;53.440;5.644;2024-02-14T05:39:05;7.70;99.90
53294;DHT22;39181;53.440;5.644;2024-02-14T05:41:31;8.40;99.90
53294;DHT22;39181;53.440;5.644;2024-02-14T05:43:58;7.70;99.90
53294;DHT22;39181;53.440;5.644;2024-02-14T05:46:24;7.70;99.90
53294;DHT22;39181;53.440;5.644;2024-02-14T05:48:49;7.70;99.90
53294;DHT22;39181;53.440;5.644;2024-02-14T05:51:17;7.70;99.90
53294;DHT22;39181;53.440;5.644;2024-02-14T05:53:43;8.40;99.90
53294;DHT22;39181;53.440;5.644;2024-02-14T05:56:09;8.50;99.90
53294;DHT22;39181;53.440;5.644;2024-02-14T05:58:34;7.80;99.90
53294;DHT22;39181;53.440;5.644;2024-02-14T06:01:01;8.30;99.90
53294;DHT22;39181;53.440;5.644;2024-02-14T06:03:26;7.90;99.90
53294;DHT22;39181;53.440;5.644;2024-02-14T06:05:53;8.10;99.90
53294;DHT22;39181;53.440;5.644;2024-02-14T06:08:18;7.90;99.90
53294;DHT22;39181;53.440;5.644;2024-02-14T06:10:44;8.20;99.90
53294;DHT22;39181;53.440;5.644;2024-02-14T06:13:10;8.30;99.90
53294;DHT22;39181;53.440;5.644;2024-02-14T06:15:35;8.80;99.90
53294;DHT22;39181;53.440;5.644;2024-02-14T06:18:01;8.80;99.90
53294;DHT22;39181;53.440;5.644;2024-02-14T06:20:27;8.80;99.90
53294;DHT22;39181;53.440;5.644;2024-02-14T06:22:52;8.00;99.90
53294;DHT22;39181;53.440;5.644;2024-02-14T06:25:18;7.90;99.90
53294;DHT22;39181;53.440;5.644;2024-02-14T06:27:43;7.90;99.90
53294;DHT22;39181;53.440;5.644;2024-02-14T06:30:09;8.60;99.90
53294;DHT22;39181;53.440;5.644;2024-02-14T06:32:35;8.80;99.90
53294;DHT22;39181;53.440;5.644;2024-02-14T06:35:04;8.60;99.90
53294;DHT22;39181;53.440;5.644;2024-02-14T06:37:33;8.80;99.90
53294;DHT22;39181;53.440;5.644;2024-02-14T06:39:58;8.50;99.90
53294;DHT22;39181;53.440;5.644;2024-02-14T06:42:24;8.50;99.90
53294;DHT22;39181;53.440;5.644;2024-02-14T06:44:49;8.10;99.90
53294;DHT22;39181;53.440;5.644;2024-02-14T06:47:15;8.30;99.90
53294;DHT22;39181;53.440;5.644;2024-02-14T06:49:41;7.90;99.90
53294;DHT22;39181;53.440;5.644;2024-02-14T06:52:06;7.90;99.90
53294;DHT22;39181;53.440;5.644;2024-02-14T06:54:32;8.70;99.90
53294;DHT22;39181;53.440;5.644;2024-02-14T06:56:57;8.00;99.90
53294;DHT22;39181;53.440;5.644;2024-02-14T06:59:23;8.50;99.90
53294;DHT22;39181;53.440;5.644;2024-02-14T07:01:49;8.40;99.90
53294;DHT22;39181;53.440;5.644;2024-02-14T07:04:14;8.80;99.90
53294;DHT22;39181;53.440;5.644;2024-02-14T07:06:41;8.20;99.90
53294;DHT22;39181;53.440;5.644;2024-02-14T07:09:06;8.70;99.90
53294;DHT22;39181;53.440;5.644;2024-02-14T07:11:32;7.90;99.90
53294;DHT22;39181;53.440;5.644;2024-02-14T07:13:57;8.10;99.90
53294;DHT22;39181;53.440;5.644;2024-02-14T07:16:23;8.80;99.90
53294;DHT22;39181;53.440;5.644;2024-02-14T07:18:49;8.60;99.90
53294;DHT22;39181;53.440;5.644;2024-02-14T07:21:15;8.90;99.90
53294;DHT22;39181;53.440;5.644;2024-02-14T07:23:42;8.00;99.90
53294;DHT22;39181;53.440;5.644;2024-02-14T07:26:07;8.90;99.90
53294;DHT22;39181;53.440;5.644;2024-02-14T07:28:33;7.90;99.90
53294;DHT22;39181;53.440;5.644;2024-02-14T07:30:59;8.00;99.90
53294;DHT22;39181;53.440;5.644;2024-02-14T07:33:24;8.00;99.90
53294;DHT22;39181;53.440;5.644;2024-02-14T07:35:50;8.00;99.90
53294;DHT22;39181;53.440;5.644;2024-02-14T07:38:15;8.80;99.90
53294;DHT22;39181;53.440;5.644;2024-02-14T07:40:42;8.60;99.90
53294;DHT22;39181;53.440;5.644;2024-02-14T07:43:07;8.80;99.90
53294;DHT22;39181;53.440;5.644;2024-02-14T07:45:33;8.70;99.90
53294;DHT22;39181;53.440;5.644;2024-02-14T07:47:59;8.00;99.90
53294;DHT22;39181;53.440;5.644;2024-02-14T07:50:24;8.50;99.90
53294;DHT22;39181;53.440;5.644;2024-02-14T07:52:50;8.10;99.90
53294;DHT22;39181;53.440;5.644;2024-02-14T07:55:15;8.60;99.90
53294;DHT22;39181;53.440;5.644;2024-02-14T07:57:42;8.50;99.90
53294;DHT22;39181;53.440;5.644;2024-02-14T08:00:08;8.20;99.90
53294;DHT22;39181;53.440;5.644;2024-02-14T08:02:35;8.10;99.90
53294;DHT22;39181;53.440;5.644;2024-02-14T08:05:01;8.30;99.90
53294;DHT22;39181;53.440;5.644;2024-02-14T08:07:27;8.20;99.90
53294;DHT22;39181;53.440;5.644;2024-02-14T08:09:54;8.60;99.90
53294;DHT22;39181;53.440;5.644;2024-02-14T08:12:20;9.00;99.90
53294;DHT22;39181;53.440;5.644;2024-02-14T08:14:46;8.20;99.90
53294;DHT22;39181;53.440;5.644;2024-02-14T08:17:12;8.20;99.90
53294;DHT22;39181;53.440;5.644;2024-02-14T08:19:38;8.50;99.90
53294;DHT22;39181;53.440;5.644;2024-02-14T08:22:05;8.20;99.90
53294;DHT22;39181;53.440;5.644;2024-02-14T08:24:31;9.00;99.90
53294;DHT22;39181;53.440;5.644;2024-02-14T08:26:56;8.10;99.90
53294;DHT22;39181;53.440;5.644;2024-02-14T08:29:23;9.00;99.90
53294;DHT22;39181;53.440;5.644;2024-02-14T08:31:48;8.90;99.90
53294;DHT22;39181;53.440;5.644;2024-02-14T08:34:14;8.30;99.90
53294;DHT22;39181;53.440;5.644;2024-02-14T08:36:40;8.20;99.90
53294;DHT22;39181;53.440;5.644;2024-02-14T08:39:10;9.10;99.90
53294;DHT22;39181;53.440;5.644;2024-02-14T08:41:37;8.30;99.90
53294;DHT22;39181;53.440;5.644;2024-02-14T08:44:02;8.40;99.90
53294;DHT22;39181;53.440;5.644;2024-02-14T08:46:30;8.50;99.90
53294;DHT22;39181;53.440;5.644;2024-02-14T08:48:56;9.20;99.90
53294;DHT22;39181;53.440;5.644;2024-02-14T08:51:21;8.60;99.90
53294;DHT22;39181;53.440;5.644;2024-02-14T08:53:48;8.60;99.90
53294;DHT22;39181;53.440;5.644;2024-02-14T08:56:13;9.20;99.90
53294;DHT22;39181;53.440;5.644;2024-02-14T08:58:39;9.20;99.90
53294;DHT22;39181;53.440;5.644;2024-02-14T09:01:05;9.20;99.90
53294;DHT22;39181;53.440;5.644;2024-02-14T09:03:31;9.10;99.90
53294;DHT22;39181;53.440;5.644;2024-02-14T09:05:57;8.40;99.90
53294;DHT22;39181;53.440;5.644;2024-02-14T09:08:23;9.20;99.90
53294;DHT22;39181;53.440;5.644;2024-02-14T09:10:50;8.90;99.90
53294;DHT22;39181;53.440;5.644;2024-02-14T09:13:15;8.40;99.90
53294;DHT22;39181;53.440;5.644;2024-02-14T09:15:42;8.50;99.90
53294;DHT22;39181;53.440;5.644;2024-02-14T09:18:08;8.60;99.90
53294;DHT22;39181;53.440;5.644;2024-02-14T09:20:34;8.70;99.90
53294;DHT22;39181;53.440;5.644;2024-02-14T09:23:00;9.20;99.90
53294;DHT22;39181;53.440;5.644;2024-02-14T09:25:25;8.80;99.90
53294;DHT22;39181;53.440;5.644;2024-02-14T09:27:51;9.10;99.90
53294;DHT22;39181;53.440;5.644;2024-02-14T09:30:17;8.80;99.90
53294;DHT22;39181;53.440;5.644;2024-02-14T09:32:46;9.40;99.90
53294;DHT22;39181;53.440;5.644;2024-02-14T09:35:13;8.80;99.90
53294;DHT22;39181;53.440;5.644;2024-02-14T09:37:38;8.60;99.90
53294;DHT22;39181;53.440;5.644;2024-02-14T09:40:05;9.40;99.90
53294;DHT22;39181;53.440;5.644;2024-02-14T09:42:53;8.80;99.90
53294;DHT22;39181;53.440;5.644;2024-02-14T09:45:20;8.70;99.90
53294;DHT22;39181;53.440;5.644;2024-02-14T09:47:46;9.00;99.90
53294;DHT22;39181;53.440;5.644;2024-02-14T09:50:13;9.40;99.90
53294;DHT22;39181;53.440;5.644;2024-02-14T09:52:39;8.70;99.90
53294;DHT22;39181;53.440;5.644;2024-02-14T09:55:06;9.50;99.90
53294;DHT22;39181;53.440;5.644;2024-02-14T09:57:32;8.70;99.90
53294;DHT22;39181;53.440;5.644;2024-02-14T10:00:00;9.30;99.90
53294;DHT22;39181;53.440;5.644;2024-02-14T10:02:30;9.40;99.90
53294;DHT22;39181;53.440;5.644;2024-02-14T10:04:55;8.80;99.90
53294;DHT22;39181;53.440;5.644;2024-02-14T10:07:21;8.90;99.90
53294;DHT22;39181;53.440;5.644;2024-02-14T10:09:46;8.80;99.90
53294;DHT22;39181;53.440;5.644;2024-02-14T10:12:13;9.10;99.90
53294;DHT22;39181;53.440;5.644;2024-02-14T10:14:38;9.50;99.90
53294;DHT22;39181;53.440;5.644;2024-02-14T10:17:04;9.60;99.90
53294;DHT22;39181;53.440;5.644;2024-02-14T10:19:30;9.50;99.90
53294;DHT22;39181;53.440;5.644;2024-02-14T10:21:59;8.80;99.90
53294;DHT22;39181;53.440;5.644;2024-02-14T10:24:27;9.00;99.90
53294;DHT22;39181;53.440;5.644;2024-02-14T10:26:53;9.70;99.90
53294;DHT22;39181;53.440;5.644;2024-02-14T10:29:20;9.80;99.90
53294;DHT22;39181;53.440;5.644;2024-02-14T10:31:46;9.00;99.90
53294;DHT22;39181;53.440;5.644;2024-02-14T10:34:12;9.30;99.90
53294;DHT22;39181;53.440;5.644;2024-02-14T10:36:38;9.80;99.90
53294;DHT22;39181;53.440;5.644;2024-02-14T10:39:06;9.10;99.90
53294;DHT22;39181;53.440;5.644;2024-02-14T10:41:33;9.90;99.90
53294;DHT22;39181;53.440;5.644;2024-02-14T10:44:04;9.20;99.90
53294;DHT22;39181;53.440;5.644;2024-02-14T10:46:32;9.30;99.90
53294;DHT22;39181;53.440;5.644;2024-02-14T10:49:03;10.00;99.90
53294;DHT22;39181;53.440;5.644;2024-02-14T10:51:34;9.20;99.90
53294;DHT22;39181;53.440;5.644;2024-02-14T10:54:13;9.90;99.90
53294;DHT22;39181;53.440;5.644;2024-02-14T10:56:41;9.60;99.90
53294;DHT22;39181;53.440;5.644;2024-02-14T10:59:09;10.50;99.90
53294;DHT22;39181;53.440;5.644;2024-02-14T11:01:37;9.90;99.90
53294;DHT22;39181;53.440;5.644;2024-02-14T11:04:03;9.30;99.90
53294;DHT22;39181;53.440;5.644;2024-02-14T11:06:30;9.50;99.90
53294;DHT22;39181;53.440;5.644;2024-02-14T11:09:05;9.30;99.90
53294;DHT22;39181;53.440;5.644;2024-02-14T11:11:35;9.70;99.90
53294;DHT22;39181;53.440;5.644;2024-02-14T11:14:02;9.30;99.90
53294;DHT22;39181;53.440;5.644;2024-02-14T11:16:30;9.90;99.90
53294;DHT22;39181;53.440;5.644;2024-02-14T11:19:15;9.60;99.90
53294;DHT22;39181;53.440;5.644;2024-02-14T11:21:46;10.10;99.90
53294;DHT22;39181;53.440;5.644;2024-02-14T11:24:14;10.00;99.90
53294;DHT22;39181;53.440;5.644;2024-02-14T11:26:50;10.00;99.90
53294;DHT22;39181;53.440;5.644;2024-02-14T11:29:20;9.30;99.90
53294;DHT22;39181;53.440;5.644;2024-02-14T11:31:46;9.70;99.90
53294;DHT22;39181;53.440;5.644;2024-02-14T11:34:14;10.00;99.90
53294;DHT22;39181;53.440;5.644;2024-02-14T11:36:44;9.40;99.90
53294;DHT22;39181;53.440;5.644;2024-02-14T11:39:10;10.20;99.90
53294;DHT22;39181;53.440;5.644;2024-02-14T11:41:37;10.30;99.90
53294;DHT22;39181;53.440;5.644;2024-02-14T11:44:04;10.00;99.90
53294;DHT22;39181;53.440;5.644;2024-02-14T11:46:34;9.70;99.90
53294;DHT22;39181;53.440;5.644;2024-02-14T11:49:01;10.20;99.90
53294;DHT22;39181;53.440;5.644;2024-02-14T11:51:28;9.80;99.90
53294;DHT22;39181;53.440;5.644;2024-02-14T11:53:54;10.00;99.90
53294;DHT22;39181;53.440;5.644;2024-02-14T11:56:23;10.40;99.90
53294;DHT22;39181;53.440;5.644;2024-02-14T11:58:51;10.20;99.90
53294;DHT22;39181;53.440;5.644;2024-02-14T12:01:18;9.70;99.90
53294;DHT22;39181;53.440;5.644;2024-02-14T12:03:43;10.20;99.90
53294;DHT22;39181;53.440;5.644;2024-02-14T12:06:10;10.00;99.90
53294;DHT22;39181;53.440;5.644;2024-02-14T12:08:36;10.10;99.90
53294;DHT22;39181;53.440;5.644;2024-02-14T12:11:02;10.40;99.90
53294;DHT22;39181;53.440;5.644;2024-02-14T12:13:30;9.70;99.90
53294;DHT22;39181;53.440;5.644;2024-02-14T12:16:00;10.20;99.90
53294;DHT22;39181;53.440;5.644;2024-02-14T12:18:26;9.80;99.90
53294;DHT22;39181;53.440;5.644;2024-02-14T12:20:52;10.20;99.90
53294;DHT22;39181;53.440;5.644;2024-02-14T12:23:28;10.20;99.90
53294;DHT22;39181;53.440;5.644;2024-02-14T12:25:53;9.60;99.90
53294;DHT22;39181;53.440;5.644;2024-02-14T12:28:19;10.30;99.90
53294;DHT22;39181;53.440;5.644;2024-02-14T12:30:51;11.00;99.90
53294;DHT22;39181;53.440;5.644;2024-02-14T12:33:26;9.90;99.90
53294;DHT22;39181;53.440;5.644;2024-02-14T12:35:53;10.00;99.90
53294;DHT22;39181;53.440;5.644;2024-02-14T12:38:20;9.80;99.90
53294;DHT22;39181;53.440;5.644;2024-02-14T12:40:46;9.70;99.90
53294;DHT22;39181;53.440;5.644;2024-02-14T12:43:13;9.80;99.90
53294;DHT22;39181;53.440;5.644;2024-02-14T12:45:41;9.70;99.90
53294;DHT22;39181;53.440;5.644;2024-02-14T12:48:11;10.30;99.90
53294;DHT22;39181;53.440;5.644;2024-02-14T12:50:41;10.20;99.90
53294;DHT22;39181;53.440;5.644;2024-02-14T12:53:13;10.10;99.90
53294;DHT22;39181;53.440;5.644;2024-02-14T12:55:39;9.60;99.90
53294;DHT22;39181;53.440;5.644;2024-02-14T12:58:04;10.40;99.90
53294;DHT22;39181;53.440;5.644;2024-02-14T13:00:30;9.60;99.90
53294;DHT22;39181;53.440;5.644;2024-02-14T13:02:57;9.80;99.90
53294;DHT22;39181;53.440;5.644;2024-02-14T13:05:23;10.30;99.90
53294;DHT22;39181;53.440;5.644;2024-02-14T13:07:49;9.70;99.90
53294;DHT22;39181;53.440;5.644;2024-02-14T13:10:15;9.70;99.90
53294;DHT22;39181;53.440;5.644;2024-02-14T13:12:41;10.30;99.90
53294;DHT22;39181;53.440;5.644;2024-02-14T13:15:09;10.00;99.90
53294;DHT22;39181;53.440;5.644;2024-02-14T13:17:35;9.50;99.90
53294;DHT22;39181;53.440;5.644;2024-02-14T13:20:00;10.20;99.90
53294;DHT22;39181;53.440;5.644;2024-02-14T13:22:26;10.00;99.90
53294;DHT22;39181;53.440;5.644;2024-02-14T13:24:53;9.90;99.90
53294;DHT22;39181;53.440;5.644;2024-02-14T13:27:18;10.10;99.90
53294;DHT22;39181;53.440;5.644;2024-02-14T13:29:47;10.10;99.90
53294;DHT22;39181;53.440;5.644;2024-02-14T13:32:12;9.80;99.90
53294;DHT22;39181;53.440;5.644;2024-02-14T13:34:38;9.30;99.90
53294;DHT22;39181;53.440;5.644;2024-02-14T13:37:04;9.50;99.90
53294;DHT22;39181;53.440;5.644;2024-02-14T13:39:31;10.10;99.90
53294;DHT22;39181;53.440;5.644;2024-02-14T13:41:56;10.10;99.90
53294;DHT22;39181;53.440;5.644;2024-02-14T13:44:24;9.80;99.90
53294;DHT22;39181;53.440;5.644;2024-02-14T13:46:50;9.20;99.90
53294;DHT22;39181;53.440;5.644;2024-02-14T13:49:16;9.40;99.90
53294;DHT22;39181;53.440;5.644;2024-02-14T13:51:47;10.90;99.90
53294;DHT22;39181;53.440;5.644;2024-02-14T13:54:13;9.80;99.90
53294;DHT22;39181;53.440;5.644;2024-02-14T13:56:39;10.40;99.90
53294;DHT22;39181;53.440;5.644;2024-02-14T13:59:04;9.20;99.90
53294;DHT22;39181;53.440;5.644;2024-02-14T14:01:30;10.00;99.90
53294;DHT22;39181;53.440;5.644;2024-02-14T14:03:55;10.00;99.90
53294;DHT22;39181;53.440;5.644;2024-02-14T14:06:23;10.00;99.90
53294;DHT22;39181;53.440;5.644;2024-02-14T14:08:52;9.20;99.90
53294;DHT22;39181;53.440;5.644;2024-02-14T14:11:17;10.00;99.90
53294;DHT22;39181;53.440;5.644;2024-02-14T14:13:43;9.90;99.90
53294;DHT22;39181;53.440;5.644;2024-02-14T14:16:09;10.00;99.90
53294;DHT22;39181;53.440;5.644;2024-02-14T14:18:36;9.20;99.90
53294;DHT22;39181;53.440;5.644;2024-02-14T14:21:02;9.50;99.90
53294;DHT22;39181;53.440;5.644;2024-02-14T14:23:28;9.80;99.90
53294;DHT22;39181;53.440;5.644;2024-02-14T14:25:54;9.60;99.90
53294;DHT22;39181;53.440;5.644;2024-02-14T14:28:20;9.20;99.90
53294;DHT22;39181;53.440;5.644;2024-02-14T14:30:50;10.00;99.90
53294;DHT22;39181;53.440;5.644;2024-02-14T14:33:16;9.30;99.90
53294;DHT22;39181;53.440;5.644;2024-02-14T14:35:42;9.80;99.90
53294;DHT22;39181;53.440;5.644;2024-02-14T14:38:08;10.00;99.90
53294;DHT22;39181;53.440;5.644;2024-02-14T14:40:34;9.30;99.90
53294;DHT22;39181;53.440;5.644;2024-02-14T14:42:59;10.00;99.90
53294;DHT22;39181;53.440;5.644;2024-02-14T14:45:26;9.60;99.90
53294;DHT22;39181;53.440;5.644;2024-02-14T14:47:53;9.60;99.90
53294;DHT22;39181;53.440;5.644;2024-02-14T14:50:19;10.00;99.90
53294;DHT22;39181;53.440;5.644;2024-02-14T14:52:45;9.90;99.90
53294;DHT22;39181;53.440;5.644;2024-02-14T14:55:11;9.10;99.90
53294;DHT22;39181;53.440;5.644;2024-02-14T14:57:37;9.20;99.90
53294;DHT22;39181;53.440;5.644;2024-02-14T15:00:15;9.30;99.90
53294;DHT22;39181;53.440;5.644;2024-02-14T15:02:43;9.80;99.90
53294;DHT22;39181;53.440;5.644;2024-02-14T15:05:10;9.20;99.90
53294;DHT22;39181;53.440;5.644;2024-02-14T15:07:39;9.50;99.90
53294;DHT22;39181;53.440;5.644;2024-02-14T15:10:06;9.20;99.90
53294;DHT22;39181;53.440;5.644;2024-02-14T15:12:33;9.10;99.90
53294;DHT22;39181;53.440;5.644;2024-02-14T15:15:04;9.00;99.90
53294;DHT22;39181;53.440;5.644;2024-02-14T15:17:30;9.80;99.90
53294;DHT22;39181;53.440;5.644;2024-02-14T15:19:56;9.90;99.90
53294;DHT22;39181;53.440;5.644;2024-02-14T15:22:22;9.80;99.90
53294;DHT22;39181;53.440;5.644;2024-02-14T15:24:54;8.80;99.90
53294;DHT22;39181;53.440;5.644;2024-02-14T15:27:20;9.60;99.90
53294;DHT22;39181;53.440;5.644;2024-02-14T15:29:52;9.40;99.90
53294;DHT22;39181;53.440;5.644;2024-02-14T15:32:36;10.30;99.90
53294;DHT22;39181;53.440;5.644;2024-02-14T15:35:21;9.70;99.90
53294;DHT22;39181;53.440;5.644;2024-02-14T15:37:46;9.20;99.90
53294;DHT22;39181;53.440;5.644;2024-02-14T15:40:15;9.40;99.90